createdAt,value
2018-04-24T17:03:25.411Z,26.85
2018-04-24T17:05:53.791Z,25.06
2018-04-24T17:08:22.118Z,24.48
2018-04-24T17:10:50.464Z,22.89
2018-04-24T17:13:18.778Z,23.20
2018-04-24T17:15:47.114Z,23.07
2018-04-24T17:18:15.436Z,22.42
2018-04-24T17:20:43.772Z,22.33
2018-04-24T17:23:17.498Z,22.37
2018-04-24T17:25:45.832Z,21.96
2018-04-24T17:28:14.144Z,22.00
2018-04-24T17:30:42.491Z,21.65
2018-04-24T17:33:10.794Z,21.30
2018-04-24T17:35:39.155Z,21.17
2018-04-24T17:38:07.462Z,21.26
2018-04-24T17:40:35.782Z,20.83
2018-04-24T17:43:04.133Z,20.85
2018-04-24T17:45:32.433Z,20.63
2018-04-24T17:48:00.830Z,20.60
2018-04-24T17:50:29.206Z,20.58
2018-04-24T17:52:57.556Z,20.67
2018-04-24T17:55:25.876Z,20.56
2018-04-24T17:57:54.212Z,20.30
2018-04-24T18:00:22.552Z,20.40
2018-04-24T18:02:50.969Z,20.22
2018-04-24T18:05:20.525Z,20.12
2018-04-24T18:07:48.868Z,19.93
2018-04-24T18:10:17.187Z,19.96
2018-04-24T18:12:45.522Z,19.76
2018-04-24T18:15:13.833Z,19.65
2018-04-24T18:17:42.202Z,19.57
2018-04-24T18:20:10.560Z,19.22
2018-04-24T18:22:38.896Z,19.13
2018-04-24T18:25:07.208Z,19.04
2018-04-24T18:27:37.376Z,19.02
2018-04-24T18:30:05.667Z,18.80
2018-04-24T18:32:34.011Z,18.82
2018-04-24T18:35:02.346Z,18.69
2018-04-24T18:37:30.678Z,18.74
2018-04-24T18:39:59.040Z,18.74
2018-04-24T18:42:27.406Z,18.65
2018-04-24T18:44:55.788Z,18.42
2018-04-24T18:47:24.224Z,18.25
2018-04-24T18:49:52.509Z,18.11
2018-04-24T18:52:20.916Z,17.99
2018-04-24T18:54:49.330Z,18.01
2018-04-24T18:57:17.641Z,17.83
2018-04-24T18:59:46.048Z,17.96
2018-04-24T19:02:14.362Z,17.96
2018-04-24T19:04:42.706Z,17.87
2018-04-24T19:07:11.101Z,17.71
2018-04-24T19:09:39.501Z,17.75
2018-04-24T19:12:07.897Z,17.75
2018-04-24T19:14:36.316Z,17.59
2018-04-24T19:17:04.634Z,17.37
2018-04-24T19:19:33.066Z,17.31
2018-04-24T19:22:01.372Z,17.28
2018-04-24T19:24:35.321Z,17.27
2018-04-24T19:27:03.922Z,17.20
2018-04-24T19:29:32.277Z,17.07
2018-04-24T19:32:06.197Z,17.02
2018-04-24T19:34:34.564Z,16.92
2018-04-24T19:37:02.880Z,17.04
2018-04-24T19:39:36.801Z,17.14
2018-04-24T19:42:05.138Z,16.95
2018-04-24T19:44:33.500Z,16.84
2018-04-24T19:47:01.864Z,16.74
2018-04-24T19:49:35.765Z,16.67
2018-04-24T19:52:04.092Z,16.73
2018-04-24T19:54:32.403Z,16.69
2018-04-24T19:57:00.768Z,16.63
2018-04-24T19:59:29.107Z,16.53
2018-04-24T20:01:57.458Z,16.60
2018-04-24T20:04:25.887Z,16.43
2018-04-24T20:06:54.148Z,16.44
2018-04-24T20:09:22.483Z,16.50
2018-04-24T20:11:50.833Z,16.39
2018-04-24T20:14:19.140Z,16.36
2018-04-24T20:16:47.481Z,16.33
2018-04-24T20:19:15.829Z,16.36
2018-04-24T20:21:44.178Z,16.18
2018-04-24T20:24:12.492Z,16.12
2018-04-24T20:26:40.841Z,15.95
2018-04-24T20:29:09.167Z,16.02
2018-04-24T20:31:37.502Z,15.98
2018-04-24T20:34:05.833Z,16.04
2018-04-24T20:36:34.156Z,15.89
2018-04-24T20:39:02.505Z,15.87
2018-04-24T20:41:30.861Z,15.84
2018-04-24T20:43:59.209Z,15.85
2018-04-24T20:46:27.521Z,15.95
2018-04-24T20:48:55.847Z,15.77
2018-04-24T20:51:24.167Z,15.73
2018-04-24T20:53:52.521Z,15.80
2018-04-24T20:56:20.837Z,15.59
2018-04-24T20:58:49.184Z,15.61
2018-04-24T21:01:17.525Z,15.63
2018-04-24T21:03:45.969Z,15.57
2018-04-24T21:06:14.337Z,15.45
2018-04-24T21:08:42.681Z,15.75
2018-04-24T21:11:10.988Z,15.57
2018-04-24T21:13:39.327Z,15.65
2018-04-24T21:16:07.649Z,15.58
2018-04-24T21:18:36.030Z,15.47
2018-04-24T21:21:04.353Z,15.47
2018-04-24T21:23:32.666Z,15.44
2018-04-24T21:26:01.063Z,15.30
2018-04-24T21:28:29.337Z,15.25
2018-04-24T21:30:57.717Z,15.15
2018-04-24T21:33:26.081Z,15.09
2018-04-24T21:35:54.503Z,14.98
2018-04-24T21:38:22.805Z,15.10
2018-04-24T21:40:51.149Z,15.25
2018-04-24T21:43:19.493Z,15.32
2018-04-24T21:45:47.836Z,15.12
2018-04-24T21:48:16.245Z,14.93
2018-04-24T21:50:44.595Z,15.01
2018-04-24T21:53:13.008Z,14.98
2018-04-24T21:55:41.384Z,15.02
2018-04-24T21:58:09.771Z,14.93
2018-04-24T22:00:38.184Z,15.08
2018-04-24T22:03:06.492Z,14.91
2018-04-24T22:05:34.900Z,14.77
2018-04-24T22:08:03.272Z,14.82
2018-04-24T22:10:31.586Z,14.91
2018-04-24T22:12:59.939Z,14.86
2018-04-24T22:15:28.273Z,14.83
2018-04-24T22:17:56.617Z,14.73
2018-04-24T22:20:24.937Z,14.70
2018-04-24T22:22:53.337Z,14.81
2018-04-24T22:25:21.657Z,14.88
2018-04-24T22:27:49.980Z,14.93
2018-04-24T22:30:19.064Z,14.74
2018-04-24T22:32:47.400Z,14.78
2018-04-24T22:35:15.708Z,14.60
2018-04-24T22:37:44.036Z,14.79
2018-04-24T22:40:12.368Z,14.92
2018-04-24T22:42:40.731Z,14.99
2018-04-24T22:45:09.056Z,14.92
2018-04-24T22:47:37.482Z,14.80
2018-04-24T22:50:05.822Z,14.71
2018-04-24T22:52:34.189Z,14.37
2018-04-24T22:55:02.494Z,14.42
2018-04-24T22:57:30.802Z,14.53
2018-04-24T22:59:59.232Z,14.57
2018-04-24T23:02:27.540Z,14.40
2018-04-24T23:04:55.861Z,14.36
2018-04-24T23:07:24.261Z,14.07
2018-04-24T23:09:55.513Z,13.99
2018-04-24T23:12:35.785Z,14.13
2018-04-24T23:15:16.027Z,14.55
2018-04-24T23:17:56.289Z,14.53
2018-04-24T23:20:24.144Z,14.44
2018-04-24T23:22:52.459Z,14.30
2018-04-24T23:25:20.770Z,14.34
2018-04-24T23:27:49.172Z,14.27
2018-04-24T23:30:17.597Z,13.96
2018-04-24T23:32:45.942Z,14.08
2018-04-24T23:35:14.306Z,13.91
2018-04-24T23:37:42.950Z,13.56
2018-04-24T23:40:11.254Z,13.96
2018-04-24T23:42:39.642Z,13.99
2018-04-24T23:45:07.949Z,13.82
2018-04-24T23:47:36.317Z,14.06
2018-04-24T23:50:04.683Z,13.74
2018-04-24T23:52:33.009Z,13.82
2018-04-24T23:55:01.321Z,13.95
2018-04-24T23:57:29.653Z,14.01
2018-04-24T23:59:57.969Z,13.95
